sensor_id;sensor_type;location;lat;lon;timestamp;temperature;humidity
18682;DHT22;9471;51.168;4.154;2022-08-05T00:01:26;23.00;99.90
18682;DHT22;9471;51.168;4.154;2022-08-05T00:03:53;23.00;99.90
18682;DHT22;9471;51.168;4.154;2022-08-05T00:06:20;23.00;99.90
18682;DHT22;9471;51.168;4.154;2022-08-05T00:08:47;22.90;99.90
18682;DHT22;9471;51.168;4.154;2022-08-05T00:11:16;22.90;99.90
18682;DHT22;9471;51.168;4.154;2022-08-05T00:13:44;22.80;99.90
18682;DHT22;9471;51.168;4.154;2022-08-05T00:16:14;22.60;99.90
18682;DHT22;9471;51.168;4.154;2022-08-05T00:18:43;22.60;99.90
18682;DHT22;9471;51.168;4.154;2022-08-05T00:21:11;22.60;99.90
18682;DHT22;9471;51.168;4.154;2022-08-05T00:23:39;22.60;99.90
18682;DHT22;9471;51.168;4.154;2022-08-05T00:26:07;22.80;99.90
18682;DHT22;9471;51.168;4.154;2022-08-05T00:28:36;22.80;99.90
18682;DHT22;9471;51.168;4.154;2022-08-05T00:31:03;22.70;99.90
18682;DHT22;9471;51.168;4.154;2022-08-05T00:33:33;22.50;99.90
18682;DHT22;9471;51.168;4.154;2022-08-05T00:36:00;22.40;99.90
18682;DHT22;9471;51.168;4.154;2022-08-05T00:38:27;22.50;99.90
18682;DHT22;9471;51.168;4.154;2022-08-05T00:40:56;22.60;99.90
18682;DHT22;9471;51.168;4.154;2022-08-05T00:43:23;22.50;99.90
18682;DHT22;9471;51.168;4.154;2022-08-05T00:45:50;22.50;99.90
18682;DHT22;9471;51.168;4.154;2022-08-05T00:48:20;22.50;99.90
18682;DHT22;9471;51.168;4.154;2022-08-05T00:50:51;22.50;99.90
18682;DHT22;9471;51.168;4.154;2022-08-05T00:53:19;22.70;99.90
18682;DHT22;9471;51.168;4.154;2022-08-05T00:55:47;22.70;99.90
18682;DHT22;9471;51.168;4.154;2022-08-05T00:58:14;22.80;99.90
18682;DHT22;9471;51.168;4.154;2022-08-05T01:00:42;22.70;99.90
18682;DHT22;9471;51.168;4.154;2022-08-05T01:03:10;22.60;99.90
18682;DHT22;9471;51.168;4.154;2022-08-05T01:05:38;22.60;99.90
18682;DHT22;9471;51.168;4.154;2022-08-05T01:08:06;22.60;99.90
18682;DHT22;9471;51.168;4.154;2022-08-05T01:10:40;22.60;99.90
18682;DHT22;9471;51.168;4.154;2022-08-05T01:13:15;22.50;99.90
18682;DHT22;9471;51.168;4.154;2022-08-05T01:15:50;22.50;99.90
18682;DHT22;9471;51.168;4.154;2022-08-05T01:18:22;22.50;99.90
18682;DHT22;9471;51.168;4.154;2022-08-05T01:20:58;22.30;99.90
18682;DHT22;9471;51.168;4.154;2022-08-05T01:23:39;22.30;99.90
18682;DHT22;9471;51.168;4.154;2022-08-05T01:26:19;22.40;99.90
18682;DHT22;9471;51.168;4.154;2022-08-05T01:28:56;22.20;99.90
18682;DHT22;9471;51.168;4.154;2022-08-05T01:31:28;22.10;99.90
18682;DHT22;9471;51.168;4.154;2022-08-05T01:34:00;22.10;99.90
18682;DHT22;9471;51.168;4.154;2022-08-05T01:36:31;22.00;99.90
18682;DHT22;9471;51.168;4.154;2022-08-05T01:39:00;22.00;99.90
18682;DHT22;9471;51.168;4.154;2022-08-05T01:41:31;21.90;99.90
18682;DHT22;9471;51.168;4.154;2022-08-05T01:44:02;21.70;99.90
18682;DHT22;9471;51.168;4.154;2022-08-05T01:46:32;21.80;99.90
18682;DHT22;9471;51.168;4.154;2022-08-05T01:49:01;21.70;99.90
18682;DHT22;9471;51.168;4.154;2022-08-05T01:51:30;21.60;99.90
18682;DHT22;9471;51.168;4.154;2022-08-05T01:54:00;21.80;99.90
18682;DHT22;9471;51.168;4.154;2022-08-05T01:56:29;21.70;99.90
18682;DHT22;9471;51.168;4.154;2022-08-05T01:58:58;21.60;99.90
18682;DHT22;9471;51.168;4.154;2022-08-05T02:01:29;21.60;99.90
18682;DHT22;9471;51.168;4.154;2022-08-05T02:03:58;21.60;99.90
18682;DHT22;9471;51.168;4.154;2022-08-05T02:06:26;21.50;99.90
18682;DHT22;9471;51.168;4.154;2022-08-05T02:08:53;21.60;99.90
18682;DHT22;9471;51.168;4.154;2022-08-05T02:11:21;21.50;99.90
18682;DHT22;9471;51.168;4.154;2022-08-05T02:13:52;21.50;99.90
18682;DHT22;9471;51.168;4.154;2022-08-05T02:16:22;21.50;99.90
18682;DHT22;9471;51.168;4.154;2022-08-05T02:18:55;21.70;99.90
18682;DHT22;9471;51.168;4.154;2022-08-05T02:21:27;21.70;99.90
18682;DHT22;9471;51.168;4.154;2022-08-05T02:23:59;21.80;99.90
18682;DHT22;9471;51.168;4.154;2022-08-05T02:26:38;21.80;99.90
18682;DHT22;9471;51.168;4.154;2022-08-05T02:29:06;21.90;99.90
18682;DHT22;9471;51.168;4.154;2022-08-05T02:31:37;21.90;99.90
18682;DHT22;9471;51.168;4.154;2022-08-05T02:34:08;21.90;99.90
18682;DHT22;9471;51.168;4.154;2022-08-05T02:36:41;22.00;99.90
18682;DHT22;9471;51.168;4.154;2022-08-05T02:39:10;21.90;99.90
18682;DHT22;9471;51.168;4.154;2022-08-05T02:41:38;21.90;99.90
18682;DHT22;9471;51.168;4.154;2022-08-05T02:44:07;22.00;99.90
18682;DHT22;9471;51.168;4.154;2022-08-05T02:46:35;22.00;99.90
18682;DHT22;9471;51.168;4.154;2022-08-05T02:49:04;22.00;99.90
18682;DHT22;9471;51.168;4.154;2022-08-05T02:51:34;21.90;99.90
18682;DHT22;9471;51.168;4.154;2022-08-05T02:54:03;22.00;99.90
18682;DHT22;9471;51.168;4.154;2022-08-05T02:56:32;22.00;99.90
18682;DHT22;9471;51.168;4.154;2022-08-05T02:59:00;22.10;99.90
18682;DHT22;9471;51.168;4.154;2022-08-05T03:01:27;22.10;99.90
18682;DHT22;9471;51.168;4.154;2022-08-05T03:03:57;22.10;99.90
18682;DHT22;9471;51.168;4.154;2022-08-05T03:06:28;22.00;99.90
18682;DHT22;9471;51.168;4.154;2022-08-05T03:08:58;22.10;99.90
18682;DHT22;9471;51.168;4.154;2022-08-05T03:11:26;21.90;99.90
18682;DHT22;9471;51.168;4.154;2022-08-05T03:13:53;21.90;99.90
18682;DHT22;9471;51.168;4.154;2022-08-05T03:16:20;21.90;99.90
18682;DHT22;9471;51.168;4.154;2022-08-05T03:18:47;21.80;99.90
18682;DHT22;9471;51.168;4.154;2022-08-05T03:21:14;21.80;99.90
18682;DHT22;9471;51.168;4.154;2022-08-05T03:23:42;21.70;99.90
18682;DHT22;9471;51.168;4.154;2022-08-05T03:26:11;21.80;99.90
18682;DHT22;9471;51.168;4.154;2022-08-05T03:28:39;21.80;99.90
18682;DHT22;9471;51.168;4.154;2022-08-05T03:31:07;21.80;99.90
18682;DHT22;9471;51.168;4.154;2022-08-05T03:33:35;21.70;99.90
18682;DHT22;9471;51.168;4.154;2022-08-05T03:36:02;21.80;99.90
18682;DHT22;9471;51.168;4.154;2022-08-05T03:38:30;21.70;99.90
18682;DHT22;9471;51.168;4.154;2022-08-05T03:40:57;21.80;99.90
18682;DHT22;9471;51.168;4.154;2022-08-05T03:43:25;21.60;99.90
18682;DHT22;9471;51.168;4.154;2022-08-05T03:45:53;21.60;99.90
18682;DHT22;9471;51.168;4.154;2022-08-05T03:48:20;21.50;99.90
18682;DHT22;9471;51.168;4.154;2022-08-05T03:50:50;21.40;99.90
18682;DHT22;9471;51.168;4.154;2022-08-05T03:53:30;21.50;99.90
18682;DHT22;9471;51.168;4.154;2022-08-05T03:56:02;21.40;99.90
18682;DHT22;9471;51.168;4.154;2022-08-05T03:58:34;21.30;99.90
18682;DHT22;9471;51.168;4.154;2022-08-05T04:01:04;21.30;99.90
18682;DHT22;9471;51.168;4.154;2022-08-05T04:03:34;21.30;99.90
18682;DHT22;9471;51.168;4.154;2022-08-05T04:06:03;21.20;99.90
18682;DHT22;9471;51.168;4.154;2022-08-05T04:08:32;21.10;99.90
18682;DHT22;9471;51.168;4.154;2022-08-05T04:11:01;21.10;99.90
18682;DHT22;9471;51.168;4.154;2022-08-05T04:13:28;21.10;99.90
18682;DHT22;9471;51.168;4.154;2022-08-05T04:15:57;21.00;99.90
18682;DHT22;9471;51.168;4.154;2022-08-05T04:18:25;21.00;99.90
18682;DHT22;9471;51.168;4.154;2022-08-05T04:20:52;21.10;99.90
18682;DHT22;9471;51.168;4.154;2022-08-05T04:23:22;20.90;99.90
18682;DHT22;9471;51.168;4.154;2022-08-05T04:25:49;20.80;99.90
18682;DHT22;9471;51.168;4.154;2022-08-05T04:28:16;20.70;99.90
18682;DHT22;9471;51.168;4.154;2022-08-05T04:30:43;20.70;99.90
18682;DHT22;9471;51.168;4.154;2022-08-05T04:33:12;20.60;99.90
18682;DHT22;9471;51.168;4.154;2022-08-05T04:35:40;20.70;99.90
18682;DHT22;9471;51.168;4.154;2022-08-05T04:38:07;20.70;99.90
18682;DHT22;9471;51.168;4.154;2022-08-05T04:40:34;20.70;99.90
18682;DHT22;9471;51.168;4.154;2022-08-05T04:43:01;20.70;99.90
18682;DHT22;9471;51.168;4.154;2022-08-05T04:45:28;20.60;99.90
18682;DHT22;9471;51.168;4.154;2022-08-05T04:48:02;20.60;99.90
18682;DHT22;9471;51.168;4.154;2022-08-05T04:50:31;20.60;99.90
18682;DHT22;9471;51.168;4.154;2022-08-05T04:52:58;20.70;99.90
18682;DHT22;9471;51.168;4.154;2022-08-05T04:55:25;20.70;99.90
18682;DHT22;9471;51.168;4.154;2022-08-05T04:57:52;20.60;99.90
18682;DHT22;9471;51.168;4.154;2022-08-05T05:00:18;20.60;99.90
18682;DHT22;9471;51.168;4.154;2022-08-05T05:02:46;20.70;99.90
18682;DHT22;9471;51.168;4.154;2022-08-05T05:05:13;20.70;99.90
18682;DHT22;9471;51.168;4.154;2022-08-05T05:07:41;20.70;99.90
18682;DHT22;9471;51.168;4.154;2022-08-05T05:10:08;20.70;99.90
18682;DHT22;9471;51.168;4.154;2022-08-05T05:12:35;20.70;99.90
18682;DHT22;9471;51.168;4.154;2022-08-05T05:15:02;20.60;99.90
18682;DHT22;9471;51.168;4.154;2022-08-05T05:17:36;20.60;99.90
18682;DHT22;9471;51.168;4.154;2022-08-05T05:20:05;20.70;99.90
18682;DHT22;9471;51.168;4.154;2022-08-05T05:22:32;20.60;99.90
18682;DHT22;9471;51.168;4.154;2022-08-05T05:25:00;20.60;99.90
18682;DHT22;9471;51.168;4.154;2022-08-05T05:27:28;20.60;99.90
18682;DHT22;9471;51.168;4.154;2022-08-05T05:29:55;20.50;99.90
18682;DHT22;9471;51.168;4.154;2022-08-05T05:32:22;20.60;99.90
18682;DHT22;9471;51.168;4.154;2022-08-05T05:34:49;20.60;99.90
18682;DHT22;9471;51.168;4.154;2022-08-05T05:37:16;20.60;99.90
18682;DHT22;9471;51.168;4.154;2022-08-05T05:39:43;20.70;99.90
18682;DHT22;9471;51.168;4.154;2022-08-05T05:42:12;20.70;99.90
18682;DHT22;9471;51.168;4.154;2022-08-05T05:44:39;20.70;99.90
18682;DHT22;9471;51.168;4.154;2022-08-05T05:47:06;20.60;99.90
18682;DHT22;9471;51.168;4.154;2022-08-05T05:49:33;20.70;99.90
18682;DHT22;9471;51.168;4.154;2022-08-05T05:52:00;20.70;99.90
18682;DHT22;9471;51.168;4.154;2022-08-05T05:54:27;20.80;99.90
18682;DHT22;9471;51.168;4.154;2022-08-05T05:56:54;20.80;99.90
18682;DHT22;9471;51.168;4.154;2022-08-05T05:59:22;20.80;99.90
18682;DHT22;9471;51.168;4.154;2022-08-05T06:01:49;20.60;99.90
18682;DHT22;9471;51.168;4.154;2022-08-05T06:04:16;20.70;99.90
18682;DHT22;9471;51.168;4.154;2022-08-05T06:06:44;20.70;99.90
18682;DHT22;9471;51.168;4.154;2022-08-05T06:09:11;20.60;99.90
18682;DHT22;9471;51.168;4.154;2022-08-05T06:11:38;20.60;99.90
18682;DHT22;9471;51.168;4.154;2022-08-05T06:14:05;20.60;99.90
18682;DHT22;9471;51.168;4.154;2022-08-05T06:16:33;20.70;99.90
18682;DHT22;9471;51.168;4.154;2022-08-05T06:19:00;20.70;99.90
18682;DHT22;9471;51.168;4.154;2022-08-05T06:21:28;20.60;99.90
18682;DHT22;9471;51.168;4.154;2022-08-05T06:23:57;20.70;99.90
18682;DHT22;9471;51.168;4.154;2022-08-05T06:26:24;20.80;99.90
18682;DHT22;9471;51.168;4.154;2022-08-05T06:28:51;20.70;99.90
18682;DHT22;9471;51.168;4.154;2022-08-05T06:31:18;20.70;99.90
18682;DHT22;9471;51.168;4.154;2022-08-05T06:33:46;20.60;99.90
18682;DHT22;9471;51.168;4.154;2022-08-05T06:36:13;20.60;99.90
18682;DHT22;9471;51.168;4.154;2022-08-05T06:38:43;20.60;99.90
18682;DHT22;9471;51.168;4.154;2022-08-05T06:41:11;20.80;99.90
18682;DHT22;9471;51.168;4.154;2022-08-05T06:43:37;20.90;99.90
18682;DHT22;9471;51.168;4.154;2022-08-05T06:46:05;20.90;99.90
18682;DHT22;9471;51.168;4.154;2022-08-05T06:48:31;21.00;99.90
18682;DHT22;9471;51.168;4.154;2022-08-05T06:51:02;21.10;99.90
18682;DHT22;9471;51.168;4.154;2022-08-05T06:53:29;21.10;99.90
18682;DHT22;9471;51.168;4.154;2022-08-05T06:55:56;21.20;99.90
18682;DHT22;9471;51.168;4.154;2022-08-05T06:58:24;21.40;99.90
18682;DHT22;9471;51.168;4.154;2022-08-05T07:00:51;21.40;99.90
18682;DHT22;9471;51.168;4.154;2022-08-05T07:03:18;21.40;99.90
18682;DHT22;9471;51.168;4.154;2022-08-05T07:05:48;21.50;99.90
18682;DHT22;9471;51.168;4.154;2022-08-05T07:08:16;21.60;99.90
18682;DHT22;9471;51.168;4.154;2022-08-05T07:10:43;21.70;99.90
18682;DHT22;9471;51.168;4.154;2022-08-05T07:13:10;21.80;99.90
18682;DHT22;9471;51.168;4.154;2022-08-05T07:15:54;21.70;99.90
18682;DHT22;9471;51.168;4.154;2022-08-05T07:18:38;21.80;99.90
18682;DHT22;9471;51.168;4.154;2022-08-05T07:21:06;22.00;99.90
18682;DHT22;9471;51.168;4.154;2022-08-05T07:23:35;21.90;99.90
18682;DHT22;9471;51.168;4.154;2022-08-05T07:26:02;22.00;99.90
18682;DHT22;9471;51.168;4.154;2022-08-05T07:28:30;22.00;99.90
18682;DHT22;9471;51.168;4.154;2022-08-05T07:30:57;22.00;99.90
18682;DHT22;9471;51.168;4.154;2022-08-05T07:33:24;22.10;99.90
18682;DHT22;9471;51.168;4.154;2022-08-05T07:35:51;22.00;99.90
18682;DHT22;9471;51.168;4.154;2022-08-05T07:38:18;22.10;99.90
18682;DHT22;9471;51.168;4.154;2022-08-05T07:40:47;22.10;99.90
18682;DHT22;9471;51.168;4.154;2022-08-05T07:43:13;22.20;99.90
18682;DHT22;9471;51.168;4.154;2022-08-05T07:45:41;22.30;99.90
18682;DHT22;9471;51.168;4.154;2022-08-05T07:48:09;22.10;99.90
18682;DHT22;9471;51.168;4.154;2022-08-05T07:50:36;22.20;99.90
18682;DHT22;9471;51.168;4.154;2022-08-05T07:53:03;22.30;99.90
18682;DHT22;9471;51.168;4.154;2022-08-05T07:55:30;22.40;99.90
18682;DHT22;9471;51.168;4.154;2022-08-05T07:57:59;22.50;99.90
18682;DHT22;9471;51.168;4.154;2022-08-05T08:00:25;22.60;99.90
18682;DHT22;9471;51.168;4.154;2022-08-05T08:02:52;22.50;99.90
18682;DHT22;9471;51.168;4.154;2022-08-05T08:05:19;22.60;99.90
18682;DHT22;9471;51.168;4.154;2022-08-05T08:07:46;22.70;99.90
18682;DHT22;9471;51.168;4.154;2022-08-05T08:10:13;22.70;99.90
18682;DHT22;9471;51.168;4.154;2022-08-05T08:12:40;22.90;99.90
18682;DHT22;9471;51.168;4.154;2022-08-05T08:15:10;22.90;99.90
18682;DHT22;9471;51.168;4.154;2022-08-05T08:17:37;23.00;99.90
18682;DHT22;9471;51.168;4.154;2022-08-05T08:20:04;23.10;99.90
18682;DHT22;9471;51.168;4.154;2022-08-05T08:22:31;23.10;99.90
18682;DHT22;9471;51.168;4.154;2022-08-05T08:24:59;23.20;99.90
18682;DHT22;9471;51.168;4.154;2022-08-05T08:27:25;23.30;99.90
18682;DHT22;9471;51.168;4.154;2022-08-05T08:29:58;23.30;99.90
18682;DHT22;9471;51.168;4.154;2022-08-05T08:32:27;23.20;99.90
18682;DHT22;9471;51.168;4.154;2022-08-05T08:34:53;23.30;99.90
18682;DHT22;9471;51.168;4.154;2022-08-05T08:37:20;23.30;99.90
18682;DHT22;9471;51.168;4.154;2022-08-05T08:39:47;23.20;99.90
18682;DHT22;9471;51.168;4.154;2022-08-05T08:42:15;23.20;99.90
18682;DHT22;9471;51.168;4.154;2022-08-05T08:44:43;23.20;99.90
18682;DHT22;9471;51.168;4.154;2022-08-05T08:47:11;23.30;99.90
18682;DHT22;9471;51.168;4.154;2022-08-05T08:49:43;23.30;99.90
18682;DHT22;9471;51.168;4.154;2022-08-05T08:52:13;23.30;99.90
18682;DHT22;9471;51.168;4.154;2022-08-05T08:54:43;23.50;99.90
18682;DHT22;9471;51.168;4.154;2022-08-05T08:57:12;23.70;99.90
18682;DHT22;9471;51.168;4.154;2022-08-05T08:59:39;23.80;99.90
18682;DHT22;9471;51.168;4.154;2022-08-05T09:02:07;23.80;99.90
18682;DHT22;9471;51.168;4.154;2022-08-05T09:04:35;23.50;99.90
18682;DHT22;9471;51.168;4.154;2022-08-05T09:07:04;23.40;99.90
18682;DHT22;9471;51.168;4.154;2022-08-05T09:09:32;23.40;99.90
18682;DHT22;9471;51.168;4.154;2022-08-05T09:11:59;23.30;99.90
18682;DHT22;9471;51.168;4.154;2022-08-05T09:14:26;23.30;99.90
18682;DHT22;9471;51.168;4.154;2022-08-05T09:16:53;23.40;99.90
18682;DHT22;9471;51.168;4.154;2022-08-05T09:19:20;23.40;99.90
18682;DHT22;9471;51.168;4.154;2022-08-05T09:21:47;23.40;99.90
18682;DHT22;9471;51.168;4.154;2022-08-05T09:24:16;23.60;99.90
18682;DHT22;9471;51.168;4.154;2022-08-05T09:26:46;23.90;99.90
18682;DHT22;9471;51.168;4.154;2022-08-05T09:29:16;24.10;99.90
18682;DHT22;9471;51.168;4.154;2022-08-05T09:31:43;24.10;99.90
18682;DHT22;9471;51.168;4.154;2022-08-05T09:34:11;24.20;99.90
18682;DHT22;9471;51.168;4.154;2022-08-05T09:36:40;24.40;99.90
18682;DHT22;9471;51.168;4.154;2022-08-05T09:39:10;24.40;99.90
18682;DHT22;9471;51.168;4.154;2022-08-05T09:41:57;24.40;99.90
18682;DHT22;9471;51.168;4.154;2022-08-05T09:44:35;24.40;99.90
18682;DHT22;9471;51.168;4.154;2022-08-05T09:47:11;24.20;99.90
18682;DHT22;9471;51.168;4.154;2022-08-05T09:49:44;24.10;99.90
18682;DHT22;9471;51.168;4.154;2022-08-05T09:52:19;24.00;99.90
18682;DHT22;9471;51.168;4.154;2022-08-05T09:54:54;24.00;99.90
18682;DHT22;9471;51.168;4.154;2022-08-05T09:57:35;23.90;99.90
18682;DHT22;9471;51.168;4.154;2022-08-05T10:00:08;24.10;99.90
18682;DHT22;9471;51.168;4.154;2022-08-05T10:02:38;24.30;99.90
18682;DHT22;9471;51.168;4.154;2022-08-05T10:05:12;24.40;99.90
18682;DHT22;9471;51.168;4.154;2022-08-05T10:07:44;24.40;99.90
18682;DHT22;9471;51.168;4.154;2022-08-05T10:10:12;24.30;99.90
18682;DHT22;9471;51.168;4.154;2022-08-05T10:12:42;24.30;99.90
18682;DHT22;9471;51.168;4.154;2022-08-05T10:15:24;24.40;99.90
18682;DHT22;9471;51.168;4.154;2022-08-05T10:18:04;24.50;99.90
18682;DHT22;9471;51.168;4.154;2022-08-05T10:20:32;24.40;99.90
18682;DHT22;9471;51.168;4.154;2022-08-05T10:23:00;24.40;99.90
18682;DHT22;9471;51.168;4.154;2022-08-05T10:25:27;24.50;99.90
18682;DHT22;9471;51.168;4.154;2022-08-05T10:27:56;24.30;99.90
18682;DHT22;9471;51.168;4.154;2022-08-05T10:30:24;24.30;99.90
18682;DHT22;9471;51.168;4.154;2022-08-05T10:32:51;24.20;99.90
18682;DHT22;9471;51.168;4.154;2022-08-05T10:35:19;24.30;99.90
18682;DHT22;9471;51.168;4.154;2022-08-05T10:37:46;24.40;99.90
18682;DHT22;9471;51.168;4.154;2022-08-05T10:40:18;24.60;99.90
18682;DHT22;9471;51.168;4.154;2022-08-05T10:42:50;24.60;99.90
18682;DHT22;9471;51.168;4.154;2022-08-05T10:45:26;24.50;99.90
18682;DHT22;9471;51.168;4.154;2022-08-05T10:47:53;24.20;99.90
18682;DHT22;9471;51.168;4.154;2022-08-05T10:50:20;24.10;99.90
18682;DHT22;9471;51.168;4.154;2022-08-05T10:52:49;23.90;99.90
18682;DHT22;9471;51.168;4.154;2022-08-05T10:55:22;23.90;99.90
18682;DHT22;9471;51.168;4.154;2022-08-05T10:58:06;24.00;99.90
18682;DHT22;9471;51.168;4.154;2022-08-05T11:00:35;23.90;99.90
18682;DHT22;9471;51.168;4.154;2022-08-05T11:03:12;23.90;99.90
18682;DHT22;9471;51.168;4.154;2022-08-05T11:05:40;23.90;99.90
18682;DHT22;9471;51.168;4.154;2022-08-05T11:08:09;23.90;99.90
18682;DHT22;9471;51.168;4.154;2022-08-05T11:10:37;23.90;99.90
18682;DHT22;9471;51.168;4.154;2022-08-05T11:13:05;23.90;99.90
18682;DHT22;9471;51.168;4.154;2022-08-05T11:15:36;24.00;99.90
18682;DHT22;9471;51.168;4.154;2022-08-05T11:18:07;23.90;99.90
18682;DHT22;9471;51.168;4.154;2022-08-05T11:20:40;23.70;99.90
18682;DHT22;9471;51.168;4.154;2022-08-05T11:23:27;23.70;99.90
18682;DHT22;9471;51.168;4.154;2022-08-05T11:26:05;23.90;99.90
18682;DHT22;9471;51.168;4.154;2022-08-05T11:28:44;23.90;98.20
18682;DHT22;9471;51.168;4.154;2022-08-05T11:31:25;24.10;98.20
18682;DHT22;9471;51.168;4.154;2022-08-05T11:34:00;24.10;98.00
18682;DHT22;9471;51.168;4.154;2022-08-05T11:36:48;24.10;96.90
18682;DHT22;9471;51.168;4.154;2022-08-05T11:41:59;24.10;96.20
18682;DHT22;9471;51.168;4.154;2022-08-05T11:44:35;24.00;96.10
18682;DHT22;9471;51.168;4.154;2022-08-05T11:47:05;24.00;95.30
18682;DHT22;9471;51.168;4.154;2022-08-05T11:49:32;24.20;96.20
18682;DHT22;9471;51.168;4.154;2022-08-05T11:52:00;24.20;96.40
18682;DHT22;9471;51.168;4.154;2022-08-05T11:54:28;24.20;96.80
18682;DHT22;9471;51.168;4.154;2022-08-05T11:56:59;24.40;96.60
18682;DHT22;9471;51.168;4.154;2022-08-05T11:59:27;24.70;96.10
18682;DHT22;9471;51.168;4.154;2022-08-05T12:01:57;24.80;95.30
18682;DHT22;9471;51.168;4.154;2022-08-05T12:04:27;24.90;95.50
18682;DHT22;9471;51.168;4.154;2022-08-05T12:06:58;25.00;94.40
18682;DHT22;9471;51.168;4.154;2022-08-05T12:09:28;25.20;93.10
18682;DHT22;9471;51.168;4.154;2022-08-05T12:11:55;24.50;93.50
18682;DHT22;9471;51.168;4.154;2022-08-05T12:14:23;24.50;94.10
18682;DHT22;9471;51.168;4.154;2022-08-05T12:16:50;24.50;94.80
18682;DHT22;9471;51.168;4.154;2022-08-05T12:19:17;24.40;94.80
18682;DHT22;9471;51.168;4.154;2022-08-05T12:21:48;24.40;94.60
18682;DHT22;9471;51.168;4.154;2022-08-05T12:24:17;24.50;95.20
18682;DHT22;9471;51.168;4.154;2022-08-05T12:26:47;24.40;95.40
18682;DHT22;9471;51.168;4.154;2022-08-05T12:29:16;24.30;95.70
18682;DHT22;9471;51.168;4.154;2022-08-05T12:31:45;24.30;95.70
18682;DHT22;9471;51.168;4.154;2022-08-05T12:34:13;24.30;95.90
18682;DHT22;9471;51.168;4.154;2022-08-05T12:36:40;24.40;95.80
18682;DHT22;9471;51.168;4.154;2022-08-05T12:39:12;24.50;95.60
18682;DHT22;9471;51.168;4.154;2022-08-05T12:41:40;24.40;95.20
18682;DHT22;9471;51.168;4.154;2022-08-05T12:44:09;24.40;95.60
18682;DHT22;9471;51.168;4.154;2022-08-05T12:46:37;24.60;94.50
18682;DHT22;9471;51.168;4.154;2022-08-05T12:49:06;24.70;94.40
18682;DHT22;9471;51.168;4.154;2022-08-05T12:51:45;24.80;94.00
18682;DHT22;9471;51.168;4.154;2022-08-05T12:54:19;24.90;94.10
18682;DHT22;9471;51.168;4.154;2022-08-05T12:56:48;24.90;93.60
18682;DHT22;9471;51.168;4.154;2022-08-05T12:59:18;25.10;93.50
18682;DHT22;9471;51.168;4.154;2022-08-05T13:01:56;24.80;93.10
18682;DHT22;9471;51.168;4.154;2022-08-05T13:04:26;24.70;93.40
18682;DHT22;9471;51.168;4.154;2022-08-05T13:06:56;24.50;93.40
18682;DHT22;9471;51.168;4.154;2022-08-05T13:09:26;24.60;93.40
18682;DHT22;9471;51.168;4.154;2022-08-05T13:12:01;24.70;93.60
18682;DHT22;9471;51.168;4.154;2022-08-05T13:14:35;24.70;92.90
18682;DHT22;9471;51.168;4.154;2022-08-05T13:17:08;24.50;93.50
18682;DHT22;9471;51.168;4.154;2022-08-05T13:19:36;24.80;93.70
18682;DHT22;9471;51.168;4.154;2022-08-05T13:22:03;25.10;92.50
18682;DHT22;9471;51.168;4.154;2022-08-05T13:24:32;25.40;92.00
18682;DHT22;9471;51.168;4.154;2022-08-05T13:26:59;25.50;91.70
18682;DHT22;9471;51.168;4.154;2022-08-05T13:29:26;25.60;90.40
18682;DHT22;9471;51.168;4.154;2022-08-05T13:31:53;25.50;90.20
18682;DHT22;9471;51.168;4.154;2022-08-05T13:34:22;25.70;89.10
18682;DHT22;9471;51.168;4.154;2022-08-05T13:36:49;25.90;87.80
18682;DHT22;9471;51.168;4.154;2022-08-05T13:39:16;25.80;87.80
18682;DHT22;9471;51.168;4.154;2022-08-05T13:41:45;25.40;89.20
18682;DHT22;9471;51.168;4.154;2022-08-05T13:44:12;25.20;88.30
18682;DHT22;9471;51.168;4.154;2022-08-05T13:46:38;25.00;86.70
18682;DHT22;9471;51.168;4.154;2022-08-05T13:49:06;24.90;87.70
18682;DHT22;9471;51.168;4.154;2022-08-05T13:51:33;24.90;87.70
18682;DHT22;9471;51.168;4.154;2022-08-05T13:54:00;25.00;85.40
18682;DHT22;9471;51.168;4.154;2022-08-05T13:56:27;25.10;85.10
18682;DHT22;9471;51.168;4.154;2022-08-05T13:58:55;25.10;82.30
18682;DHT22;9471;51.168;4.154;2022-08-05T14:01:22;25.00;81.10
18682;DHT22;9471;51.168;4.154;2022-08-05T14:03:49;25.10;82.10
18682;DHT22;9471;51.168;4.154;2022-08-05T14:06:34;25.10;84.50
18682;DHT22;9471;51.168;4.154;2022-08-05T14:09:01;25.10;85.50
18682;DHT22;9471;51.168;4.154;2022-08-05T14:11:28;24.80;88.20
18682;DHT22;9471;51.168;4.154;2022-08-05T14:13:58;24.70;90.10
18682;DHT22;9471;51.168;4.154;2022-08-05T14:16:26;24.80;90.60
18682;DHT22;9471;51.168;4.154;2022-08-05T14:18:52;25.10;90.70
18682;DHT22;9471;51.168;4.154;2022-08-05T14:21:19;25.20;89.60
18682;DHT22;9471;51.168;4.154;2022-08-05T14:23:46;25.40;88.60
18682;DHT22;9471;51.168;4.154;2022-08-05T14:26:13;25.10;89.70
18682;DHT22;9471;51.168;4.154;2022-08-05T14:28:40;25.00;90.50
18682;DHT22;9471;51.168;4.154;2022-08-05T14:31:08;24.90;91.20
18682;DHT22;9471;51.168;4.154;2022-08-05T14:33:35;24.60;91.30
18682;DHT22;9471;51.168;4.154;2022-08-05T14:36:03;24.40;92.30
18682;DHT22;9471;51.168;4.154;2022-08-05T14:38:30;24.50;92.30
18682;DHT22;9471;51.168;4.154;2022-08-05T14:40:57;24.40;92.80
18682;DHT22;9471;51.168;4.154;2022-08-05T14:43:24;24.50;93.10
18682;DHT22;9471;51.168;4.154;2022-08-05T14:45:51;24.50;92.10
18682;DHT22;9471;51.168;4.154;2022-08-05T14:48:19;24.70;92.30
18682;DHT22;9471;51.168;4.154;2022-08-05T14:50:46;24.90;92.30
18682;DHT22;9471;51.168;4.154;2022-08-05T14:53:13;25.10;91.90
18682;DHT22;9471;51.168;4.154;2022-08-05T14:55:40;25.30;91.40
18682;DHT22;9471;51.168;4.154;2022-08-05T14:58:08;25.40;91.80
18682;DHT22;9471;51.168;4.154;2022-08-05T15:00:35;25.40;91.60
18682;DHT22;9471;51.168;4.154;2022-08-05T15:03:02;25.40;89.60
18682;DHT22;9471;51.168;4.154;2022-08-05T15:05:31;25.20;89.50
18682;DHT22;9471;51.168;4.154;2022-08-05T15:07:58;25.10;88.30
18682;DHT22;9471;51.168;4.154;2022-08-05T15:10:25;25.10;90.80
18682;DHT22;9471;51.168;4.154;2022-08-05T15:12:52;25.10;92.40
18682;DHT22;9471;51.168;4.154;2022-08-05T15:15:20;25.40;92.90
18682;DHT22;9471;51.168;4.154;2022-08-05T15:17:47;25.50;92.80
18682;DHT22;9471;51.168;4.154;2022-08-05T15:20:14;25.40;92.90
18682;DHT22;9471;51.168;4.154;2022-08-05T15:22:43;25.50;92.80
18682;DHT22;9471;51.168;4.154;2022-08-05T15:25:10;25.20;93.20
18682;DHT22;9471;51.168;4.154;2022-08-05T15:27:37;25.00;93.80
18682;DHT22;9471;51.168;4.154;2022-08-05T15:30:04;25.00;94.10
18682;DHT22;9471;51.168;4.154;2022-08-05T15:32:32;25.10;94.80
18682;DHT22;9471;51.168;4.154;2022-08-05T15:34:59;25.20;94.60
18682;DHT22;9471;51.168;4.154;2022-08-05T15:37:26;25.30;94.10
18682;DHT22;9471;51.168;4.154;2022-08-05T15:39:54;25.30;93.40
18682;DHT22;9471;51.168;4.154;2022-08-05T15:42:22;24.90;93.80
18682;DHT22;9471;51.168;4.154;2022-08-05T15:44:50;24.70;94.20
18682;DHT22;9471;51.168;4.154;2022-08-05T15:47:19;24.60;94.20
18682;DHT22;9471;51.168;4.154;2022-08-05T15:49:47;24.60;94.40
18682;DHT22;9471;51.168;4.154;2022-08-05T15:52:14;24.70;94.50
18682;DHT22;9471;51.168;4.154;2022-08-05T15:54:45;24.80;93.80
18682;DHT22;9471;51.168;4.154;2022-08-05T15:57:13;24.80;93.30
18682;DHT22;9471;51.168;4.154;2022-08-05T15:59:40;24.30;94.50